sensor_id;sensor_type;location;lat;lon;timestamp;P1;durP1;ratioP1;P2;durP2;ratioP2
44046;SDS011;29713;-33.888;151.150;2023-03-01T00:00:22;6.55;;;4.63;;
44046;SDS011;29713;-33.888;151.150;2023-03-01T00:02:49;6.85;;;4.57;;
44046;SDS011;29713;-33.888;151.150;2023-03-01T00:05:16;8.07;;;4.93;;
44046;SDS011;29713;-33.888;151.150;2023-03-01T00:07:44;7.50;;;3.95;;
44046;SDS011;29713;-33.888;151.150;2023-03-01T00:10:11;6.72;;;4.20;;
44046;SDS011;29713;-33.888;151.150;2023-03-01T00:12:41;7.25;;;4.60;;
44046;SDS011;29713;-33.888;151.150;2023-03-01T00:15:09;6.18;;;4.28;;
44046;SDS011;29713;-33.888;151.150;2023-03-01T00:17:37;7.65;;;4.57;;
44046;SDS011;29713;-33.888;151.150;2023-03-01T00:20:04;5.13;;;3.70;;
44046;SDS011;29713;-33.888;151.150;2023-03-01T00:22:36;6.90;;;3.88;;
44046;SDS011;29713;-33.888;151.150;2023-03-01T00:25:03;5.00;;;3.35;;
44046;SDS011;29713;-33.888;151.150;2023-03-01T00:27:31;4.88;;;3.25;;
44046;SDS011;29713;-33.888;151.150;2023-03-01T00:29:58;4.72;;;3.28;;
44046;SDS011;29713;-33.888;151.150;2023-03-01T00:32:28;8.00;;;3.50;;
44046;SDS011;29713;-33.888;151.150;2023-03-01T00:34:57;4.25;;;3.15;;
44046;SDS011;29713;-33.888;151.150;2023-03-01T00:37:26;6.15;;;3.50;;
44046;SDS011;29713;-33.888;151.150;2023-03-01T00:39:53;7.22;;;3.20;;
44046;SDS011;29713;-33.888;151.150;2023-03-01T00:42:24;5.97;;;2.78;;
44046;SDS011;29713;-33.888;151.150;2023-03-01T00:44:51;6.25;;;3.03;;
44046;SDS011;29713;-33.888;151.150;2023-03-01T00:47:18;3.22;;;2.63;;
44046;SDS011;29713;-33.888;151.150;2023-03-01T00:49:46;4.88;;;2.60;;
44046;SDS011;29713;-33.888;151.150;2023-03-01T00:52:13;4.97;;;2.30;;
44046;SDS011;29713;-33.888;151.150;2023-03-01T00:54:42;5.57;;;2.35;;
44046;SDS011;29713;-33.888;151.150;2023-03-01T00:57:09;6.72;;;2.35;;
44046;SDS011;29713;-33.888;151.150;2023-03-01T00:59:42;9.02;;;2.47;;
44046;SDS011;29713;-33.888;151.150;2023-03-01T01:02:10;7.88;;;2.38;;
44046;SDS011;29713;-33.888;151.150;2023-03-01T01:04:37;3.28;;;1.83;;
44046;SDS011;29713;-33.888;151.150;2023-03-01T01:07:04;4.47;;;1.85;;
44046;SDS011;29713;-33.888;151.150;2023-03-01T01:09:32;5.72;;;1.90;;
44046;SDS011;29713;-33.888;151.150;2023-03-01T01:11:59;9.18;;;2.30;;
44046;SDS011;29713;-33.888;151.150;2023-03-01T01:14:27;5.13;;;2.10;;
44046;SDS011;29713;-33.888;151.150;2023-03-01T01:16:55;5.15;;;1.90;;
44046;SDS011;29713;-33.888;151.150;2023-03-01T01:19:22;6.03;;;2.20;;
44046;SDS011;29713;-33.888;151.150;2023-03-01T01:21:52;3.03;;;1.80;;
44046;SDS011;29713;-33.888;151.150;2023-03-01T01:24:19;4.68;;;1.50;;
44046;SDS011;29713;-33.888;151.150;2023-03-01T01:26:47;4.95;;;1.77;;
44046;SDS011;29713;-33.888;151.150;2023-03-01T01:29:14;2.92;;;1.83;;
44046;SDS011;29713;-33.888;151.150;2023-03-01T01:31:42;5.78;;;1.63;;
44046;SDS011;29713;-33.888;151.150;2023-03-01T01:34:13;4.25;;;1.60;;
44046;SDS011;29713;-33.888;151.150;2023-03-01T01:36:48;5.60;;;1.30;;
44046;SDS011;29713;-33.888;151.150;2023-03-01T01:39:20;4.35;;;1.83;;
44046;SDS011;29713;-33.888;151.150;2023-03-01T01:41:47;3.28;;;1.30;;
44046;SDS011;29713;-33.888;151.150;2023-03-01T01:52:38;3.30;;;1.40;;
44046;SDS011;29713;-33.888;151.150;2023-03-01T01:54:50;3.78;;;1.60;;
44046;SDS011;29713;-33.888;151.150;2023-03-01T01:57:22;3.75;;;1.20;;
44046;SDS011;29713;-33.888;151.150;2023-03-01T01:59:58;4.32;;;1.35;;
44046;SDS011;29713;-33.888;151.150;2023-03-01T02:02:30;3.85;;;1.20;;
44046;SDS011;29713;-33.888;151.150;2023-03-01T02:05:06;3.55;;;1.55;;
44046;SDS011;29713;-33.888;151.150;2023-03-01T02:07:50;5.28;;;1.60;;
44046;SDS011;29713;-33.888;151.150;2023-03-01T02:10:18;5.65;;;1.58;;
44046;SDS011;29713;-33.888;151.150;2023-03-01T02:12:47;4.47;;;1.50;;
44046;SDS011;29713;-33.888;151.150;2023-03-01T02:15:15;2.58;;;1.33;;
44046;SDS011;29713;-33.888;151.150;2023-03-01T02:17:43;4.63;;;1.40;;
44046;SDS011;29713;-33.888;151.150;2023-03-01T02:20:16;4.93;;;1.50;;
44046;SDS011;29713;-33.888;151.150;2023-03-01T02:23:04;3.53;;;1.50;;
44046;SDS011;29713;-33.888;151.150;2023-03-01T02:25:40;5.25;;;1.40;;
44046;SDS011;29713;-33.888;151.150;2023-03-01T02:30:42;2.88;;;1.27;;
44046;SDS011;29713;-33.888;151.150;2023-03-01T02:33:32;2.08;;;1.30;;
44046;SDS011;29713;-33.888;151.150;2023-03-01T02:36:03;2.85;;;1.23;;
44046;SDS011;29713;-33.888;151.150;2023-03-01T02:38:39;2.13;;;1.45;;
44046;SDS011;29713;-33.888;151.150;2023-03-01T02:41:07;2.53;;;1.15;;
44046;SDS011;29713;-33.888;151.150;2023-03-01T02:43:37;3.53;;;1.23;;
44046;SDS011;29713;-33.888;151.150;2023-03-01T02:46:07;1.45;;;1.35;;
44046;SDS011;29713;-33.888;151.150;2023-03-01T02:48:47;2.90;;;1.25;;
44046;SDS011;29713;-33.888;151.150;2023-03-01T02:56:41;2.35;;;1.05;;
44046;SDS011;29713;-33.888;151.150;2023-03-01T02:59:13;2.33;;;1.00;;
44046;SDS011;29713;-33.888;151.150;2023-03-01T03:02:22;1.30;;;0.98;;
44046;SDS011;29713;-33.888;151.150;2023-03-01T03:07:35;1.58;;;0.98;;
44046;SDS011;29713;-33.888;151.150;2023-03-01T03:10:05;2.80;;;1.10;;
44046;SDS011;29713;-33.888;151.150;2023-03-01T03:12:37;3.22;;;1.30;;
44046;SDS011;29713;-33.888;151.150;2023-03-01T03:15:05;3.00;;;1.10;;
44046;SDS011;29713;-33.888;151.150;2023-03-01T03:17:37;2.78;;;1.33;;
44046;SDS011;29713;-33.888;151.150;2023-03-01T03:20:08;3.72;;;1.33;;
44046;SDS011;29713;-33.888;151.150;2023-03-01T03:22:40;6.18;;;1.40;;
44046;SDS011;29713;-33.888;151.150;2023-03-01T03:25:08;3.55;;;0.93;;
44046;SDS011;29713;-33.888;151.150;2023-03-01T03:27:36;3.60;;;1.10;;
44046;SDS011;29713;-33.888;151.150;2023-03-01T03:30:05;4.05;;;1.00;;
44046;SDS011;29713;-33.888;151.150;2023-03-01T03:32:37;4.35;;;1.23;;
44046;SDS011;29713;-33.888;151.150;2023-03-01T03:35:06;9.90;;;1.55;;
44046;SDS011;29713;-33.888;151.150;2023-03-01T03:37:39;9.77;;;1.38;;
44046;SDS011;29713;-33.888;151.150;2023-03-01T03:40:25;5.50;;;1.45;;
44046;SDS011;29713;-33.888;151.150;2023-03-01T03:42:53;6.70;;;1.30;;
44046;SDS011;29713;-33.888;151.150;2023-03-01T03:45:21;5.20;;;1.30;;
44046;SDS011;29713;-33.888;151.150;2023-03-01T03:47:48;4.07;;;1.10;;
44046;SDS011;29713;-33.888;151.150;2023-03-01T03:50:16;2.63;;;1.02;;
44046;SDS011;29713;-33.888;151.150;2023-03-01T03:52:44;5.60;;;1.20;;
44046;SDS011;29713;-33.888;151.150;2023-03-01T03:55:12;3.17;;;0.75;;
44046;SDS011;29713;-33.888;151.150;2023-03-01T03:57:42;2.58;;;1.00;;
44046;SDS011;29713;-33.888;151.150;2023-03-01T04:00:10;2.05;;;0.80;;
44046;SDS011;29713;-33.888;151.150;2023-03-01T04:02:39;3.58;;;0.77;;
44046;SDS011;29713;-33.888;151.150;2023-03-01T04:05:07;2.45;;;0.50;;
44046;SDS011;29713;-33.888;151.150;2023-03-01T04:07:36;4.38;;;0.77;;
44046;SDS011;29713;-33.888;151.150;2023-03-01T04:10:05;2.10;;;0.47;;
44046;SDS011;29713;-33.888;151.150;2023-03-01T04:12:38;1.60;;;0.60;;
44046;SDS011;29713;-33.888;151.150;2023-03-01T04:15:06;2.63;;;0.70;;
44046;SDS011;29713;-33.888;151.150;2023-03-01T04:17:40;3.88;;;0.60;;
44046;SDS011;29713;-33.888;151.150;2023-03-01T04:20:14;2.47;;;0.70;;
44046;SDS011;29713;-33.888;151.150;2023-03-01T04:23:00;2.28;;;0.80;;
44046;SDS011;29713;-33.888;151.150;2023-03-01T04:28:20;2.45;;;1.00;;
44046;SDS011;29713;-33.888;151.150;2023-03-01T04:30:47;2.05;;;1.05;;
44046;SDS011;29713;-33.888;151.150;2023-03-01T04:33:15;4.50;;;0.93;;
44046;SDS011;29713;-33.888;151.150;2023-03-01T04:35:43;2.40;;;1.08;;
44046;SDS011;29713;-33.888;151.150;2023-03-01T04:38:11;3.13;;;1.20;;
44046;SDS011;29713;-33.888;151.150;2023-03-01T04:40:41;5.93;;;0.80;;
44046;SDS011;29713;-33.888;151.150;2023-03-01T04:43:08;4.57;;;0.93;;
44046;SDS011;29713;-33.888;151.150;2023-03-01T04:45:37;5.65;;;1.00;;
44046;SDS011;29713;-33.888;151.150;2023-03-01T04:48:04;3.20;;;0.80;;
44046;SDS011;29713;-33.888;151.150;2023-03-01T04:50:32;3.50;;;0.93;;
44046;SDS011;29713;-33.888;151.150;2023-03-01T04:52:59;3.65;;;0.88;;
44046;SDS011;29713;-33.888;151.150;2023-03-01T04:55:27;3.97;;;0.88;;
44046;SDS011;29713;-33.888;151.150;2023-03-01T04:57:55;1.90;;;1.00;;
44046;SDS011;29713;-33.888;151.150;2023-03-01T05:00:22;3.17;;;1.00;;
44046;SDS011;29713;-33.888;151.150;2023-03-01T05:02:54;3.33;;;0.88;;
44046;SDS011;29713;-33.888;151.150;2023-03-01T05:05:27;2.08;;;0.85;;
44046;SDS011;29713;-33.888;151.150;2023-03-01T05:07:59;3.70;;;0.95;;
44046;SDS011;29713;-33.888;151.150;2023-03-01T05:10:32;3.40;;;1.40;;
44046;SDS011;29713;-33.888;151.150;2023-03-01T05:13:01;5.10;;;1.08;;
44046;SDS011;29713;-33.888;151.150;2023-03-01T05:15:29;3.08;;;1.10;;
44046;SDS011;29713;-33.888;151.150;2023-03-01T05:17:58;2.15;;;1.10;;
44046;SDS011;29713;-33.888;151.150;2023-03-01T05:20:27;4.95;;;1.30;;
44046;SDS011;29713;-33.888;151.150;2023-03-01T05:22:59;3.53;;;0.90;;
44046;SDS011;29713;-33.888;151.150;2023-03-01T05:25:31;9.50;;;1.65;;
44046;SDS011;29713;-33.888;151.150;2023-03-01T05:28:00;7.07;;;1.67;;
44046;SDS011;29713;-33.888;151.150;2023-03-01T05:30:32;4.43;;;1.02;;
44046;SDS011;29713;-33.888;151.150;2023-03-01T05:33:00;3.13;;;1.20;;
44046;SDS011;29713;-33.888;151.150;2023-03-01T05:35:28;4.15;;;1.50;;
44046;SDS011;29713;-33.888;151.150;2023-03-01T05:37:58;2.13;;;1.05;;
44046;SDS011;29713;-33.888;151.150;2023-03-01T05:40:25;5.85;;;1.30;;
44046;SDS011;29713;-33.888;151.150;2023-03-01T05:42:54;5.97;;;1.42;;
44046;SDS011;29713;-33.888;151.150;2023-03-01T05:45:23;3.85;;;1.35;;
44046;SDS011;29713;-33.888;151.150;2023-03-01T05:47:51;5.00;;;1.27;;
44046;SDS011;29713;-33.888;151.150;2023-03-01T05:50:21;5.28;;;1.20;;
44046;SDS011;29713;-33.888;151.150;2023-03-01T05:52:51;6.60;;;1.42;;
44046;SDS011;29713;-33.888;151.150;2023-03-01T05:55:23;5.85;;;1.65;;
44046;SDS011;29713;-33.888;151.150;2023-03-01T05:57:54;5.32;;;1.70;;
44046;SDS011;29713;-33.888;151.150;2023-03-01T06:00:24;6.65;;;1.77;;
44046;SDS011;29713;-33.888;151.150;2023-03-01T06:02:53;6.13;;;1.55;;
44046;SDS011;29713;-33.888;151.150;2023-03-01T06:05:21;3.53;;;1.52;;
44046;SDS011;29713;-33.888;151.150;2023-03-01T06:07:49;9.52;;;1.95;;
44046;SDS011;29713;-33.888;151.150;2023-03-01T06:10:19;6.72;;;1.58;;
44046;SDS011;29713;-33.888;151.150;2023-03-01T06:12:48;7.97;;;1.70;;
44046;SDS011;29713;-33.888;151.150;2023-03-01T06:15:15;8.95;;;1.92;;
44046;SDS011;29713;-33.888;151.150;2023-03-01T06:17:43;7.05;;;1.60;;
44046;SDS011;29713;-33.888;151.150;2023-03-01T06:20:13;7.07;;;2.17;;
44046;SDS011;29713;-33.888;151.150;2023-03-01T06:22:45;7.72;;;1.85;;
44046;SDS011;29713;-33.888;151.150;2023-03-01T06:25:16;8.07;;;2.47;;
44046;SDS011;29713;-33.888;151.150;2023-03-01T06:27:45;9.70;;;1.90;;
44046;SDS011;29713;-33.888;151.150;2023-03-01T06:30:15;8.88;;;2.28;;
44046;SDS011;29713;-33.888;151.150;2023-03-01T06:32:44;9.98;;;2.47;;
44046;SDS011;29713;-33.888;151.150;2023-03-01T06:35:12;8.60;;;2.42;;
44046;SDS011;29713;-33.888;151.150;2023-03-01T06:37:43;8.18;;;2.47;;
44046;SDS011;29713;-33.888;151.150;2023-03-01T06:40:11;7.80;;;2.25;;
44046;SDS011;29713;-33.888;151.150;2023-03-01T06:42:41;8.95;;;2.10;;
44046;SDS011;29713;-33.888;151.150;2023-03-01T06:45:10;11.93;;;2.15;;
44046;SDS011;29713;-33.888;151.150;2023-03-01T06:47:37;9.68;;;2.33;;
44046;SDS011;29713;-33.888;151.150;2023-03-01T06:50:05;13.65;;;2.60;;
44046;SDS011;29713;-33.888;151.150;2023-03-01T06:52:35;12.50;;;2.47;;
44046;SDS011;29713;-33.888;151.150;2023-03-01T06:55:04;8.10;;;2.13;;
44046;SDS011;29713;-33.888;151.150;2023-03-01T06:57:32;9.48;;;2.20;;
44046;SDS011;29713;-33.888;151.150;2023-03-01T06:59:59;13.20;;;2.80;;
44046;SDS011;29713;-33.888;151.150;2023-03-01T07:02:26;6.97;;;2.40;;
44046;SDS011;29713;-33.888;151.150;2023-03-01T07:04:54;11.25;;;2.15;;
44046;SDS011;29713;-33.888;151.150;2023-03-01T07:07:21;10.60;;;2.60;;
44046;SDS011;29713;-33.888;151.150;2023-03-01T07:09:49;10.60;;;2.88;;
44046;SDS011;29713;-33.888;151.150;2023-03-01T07:12:16;13.77;;;2.65;;
44046;SDS011;29713;-33.888;151.150;2023-03-01T07:14:44;9.00;;;2.08;;
44046;SDS011;29713;-33.888;151.150;2023-03-01T07:17:11;12.63;;;2.65;;
44046;SDS011;29713;-33.888;151.150;2023-03-01T07:19:40;10.70;;;2.88;;
44046;SDS011;29713;-33.888;151.150;2023-03-01T07:22:07;17.02;;;2.83;;
44046;SDS011;29713;-33.888;151.150;2023-03-01T07:24:35;11.50;;;2.67;;
44046;SDS011;29713;-33.888;151.150;2023-03-01T07:27:02;9.52;;;2.33;;
44046;SDS011;29713;-33.888;151.150;2023-03-01T07:29:29;9.50;;;2.60;;
44046;SDS011;29713;-33.888;151.150;2023-03-01T07:31:57;14.02;;;2.97;;
44046;SDS011;29713;-33.888;151.150;2023-03-01T07:34:24;13.07;;;2.33;;
44046;SDS011;29713;-33.888;151.150;2023-03-01T07:36:51;12.02;;;2.78;;
44046;SDS011;29713;-33.888;151.150;2023-03-01T07:39:19;8.88;;;2.67;;
44046;SDS011;29713;-33.888;151.150;2023-03-01T07:41:48;10.02;;;2.40;;
44046;SDS011;29713;-33.888;151.150;2023-03-01T07:44:16;8.10;;;2.33;;
44046;SDS011;29713;-33.888;151.150;2023-03-01T07:46:44;12.25;;;2.63;;
44046;SDS011;29713;-33.888;151.150;2023-03-01T07:49:11;9.77;;;2.80;;
44046;SDS011;29713;-33.888;151.150;2023-03-01T07:51:38;15.77;;;3.03;;
44046;SDS011;29713;-33.888;151.150;2023-03-01T07:54:06;9.60;;;2.33;;
44046;SDS011;29713;-33.888;151.150;2023-03-01T07:56:33;9.43;;;2.03;;
44046;SDS011;29713;-33.888;151.150;2023-03-01T07:59:01;11.77;;;2.55;;
44046;SDS011;29713;-33.888;151.150;2023-03-01T08:01:28;11.80;;;2.38;;
44046;SDS011;29713;-33.888;151.150;2023-03-01T08:03:55;13.40;;;2.85;;
44046;SDS011;29713;-33.888;151.150;2023-03-01T08:06:23;8.20;;;2.40;;
44046;SDS011;29713;-33.888;151.150;2023-03-01T08:08:50;13.98;;;2.92;;
44046;SDS011;29713;-33.888;151.150;2023-03-01T08:11:18;7.65;;;2.60;;
44046;SDS011;29713;-33.888;151.150;2023-03-01T08:13:46;10.20;;;2.85;;
44046;SDS011;29713;-33.888;151.150;2023-03-01T08:16:15;10.65;;;2.47;;
44046;SDS011;29713;-33.888;151.150;2023-03-01T08:18:42;13.25;;;2.83;;
44046;SDS011;29713;-33.888;151.150;2023-03-01T08:21:12;14.48;;;3.22;;
44046;SDS011;29713;-33.888;151.150;2023-03-01T08:23:41;12.18;;;2.83;;
44046;SDS011;29713;-33.888;151.150;2023-03-01T08:26:10;12.38;;;2.85;;
44046;SDS011;29713;-33.888;151.150;2023-03-01T08:28:46;13.75;;;2.80;;
44046;SDS011;29713;-33.888;151.150;2023-03-01T08:33:47;9.45;;;2.65;;
44046;SDS011;29713;-33.888;151.150;2023-03-01T08:36:20;17.52;;;2.92;;
44046;SDS011;29713;-33.888;151.150;2023-03-01T08:38:49;13.93;;;2.80;;
44046;SDS011;29713;-33.888;151.150;2023-03-01T08:41:17;9.88;;;2.40;;
44046;SDS011;29713;-33.888;151.150;2023-03-01T08:43:45;16.40;;;2.85;;
44046;SDS011;29713;-33.888;151.150;2023-03-01T08:46:13;11.45;;;2.40;;
44046;SDS011;29713;-33.888;151.150;2023-03-01T08:48:42;12.07;;;3.17;;
44046;SDS011;29713;-33.888;151.150;2023-03-01T08:51:13;14.07;;;2.53;;
44046;SDS011;29713;-33.888;151.150;2023-03-01T08:53:43;12.57;;;2.80;;
44046;SDS011;29713;-33.888;151.150;2023-03-01T08:56:11;12.93;;;2.88;;
44046;SDS011;29713;-33.888;151.150;2023-03-01T08:58:38;13.25;;;3.03;;
44046;SDS011;29713;-33.888;151.150;2023-03-01T09:01:09;12.55;;;3.15;;
44046;SDS011;29713;-33.888;151.150;2023-03-01T09:03:37;14.43;;;2.65;;
44046;SDS011;29713;-33.888;151.150;2023-03-01T09:06:05;10.38;;;2.78;;
44046;SDS011;29713;-33.888;151.150;2023-03-01T09:08:37;9.45;;;2.67;;
44046;SDS011;29713;-33.888;151.150;2023-03-01T09:11:06;9.88;;;2.50;;
44046;SDS011;29713;-33.888;151.150;2023-03-01T09:13:35;8.93;;;2.60;;
44046;SDS011;29713;-33.888;151.150;2023-03-01T09:16:03;10.52;;;2.45;;
44046;SDS011;29713;-33.888;151.150;2023-03-01T09:18:32;7.22;;;2.10;;
44046;SDS011;29713;-33.888;151.150;2023-03-01T09:21:06;11.48;;;2.63;;
44046;SDS011;29713;-33.888;151.150;2023-03-01T09:23:40;8.80;;;2.60;;
44046;SDS011;29713;-33.888;151.150;2023-03-01T09:26:16;9.70;;;2.60;;
44046;SDS011;29713;-33.888;151.150;2023-03-01T09:28:48;14.77;;;3.42;;
44046;SDS011;29713;-33.888;151.150;2023-03-01T09:31:20;10.35;;;3.10;;
44046;SDS011;29713;-33.888;151.150;2023-03-01T09:33:51;8.32;;;2.50;;
44046;SDS011;29713;-33.888;151.150;2023-03-01T09:36:21;12.18;;;3.03;;
44046;SDS011;29713;-33.888;151.150;2023-03-01T09:38:50;8.57;;;2.83;;
44046;SDS011;29713;-33.888;151.150;2023-03-01T09:46:47;12.13;;;2.75;;
44046;SDS011;29713;-33.888;151.150;2023-03-01T09:49:21;10.65;;;3.28;;
44046;SDS011;29713;-33.888;151.150;2023-03-01T09:51:59;10.85;;;2.80;;
44046;SDS011;29713;-33.888;151.150;2023-03-01T09:54:30;10.82;;;2.55;;
44046;SDS011;29713;-33.888;151.150;2023-03-01T10:00:05;11.40;;;2.80;;
44046;SDS011;29713;-33.888;151.150;2023-03-01T10:02:54;16.95;;;3.30;;
44046;SDS011;29713;-33.888;151.150;2023-03-01T10:10:45;11.07;;;3.08;;
44046;SDS011;29713;-33.888;151.150;2023-03-01T10:16:26;14.15;;;3.13;;
44046;SDS011;29713;-33.888;151.150;2023-03-01T10:19:30;9.68;;;2.53;;
44046;SDS011;29713;-33.888;151.150;2023-03-01T10:22:22;14.23;;;3.40;;
44046;SDS011;29713;-33.888;151.150;2023-03-01T10:24:57;18.60;;;3.08;;
44046;SDS011;29713;-33.888;151.150;2023-03-01T10:27:51;17.52;;;2.97;;
44046;SDS011;29713;-33.888;151.150;2023-03-01T10:30:38;12.98;;;3.28;;
44046;SDS011;29713;-33.888;151.150;2023-03-01T10:33:18;11.85;;;3.08;;
44046;SDS011;29713;-33.888;151.150;2023-03-01T10:36:07;13.27;;;3.20;;
44046;SDS011;29713;-33.888;151.150;2023-03-01T10:38:52;10.10;;;2.65;;
44046;SDS011;29713;-33.888;151.150;2023-03-01T10:41:22;14.35;;;3.50;;
44046;SDS011;29713;-33.888;151.150;2023-03-01T10:43:53;11.43;;;3.20;;
44046;SDS011;29713;-33.888;151.150;2023-03-01T10:51:43;12.02;;;3.42;;
44046;SDS011;29713;-33.888;151.150;2023-03-01T10:54:19;16.65;;;4.18;;
44046;SDS011;29713;-33.888;151.150;2023-03-01T10:56:58;15.07;;;3.58;;
44046;SDS011;29713;-33.888;151.150;2023-03-01T10:59:28;17.30;;;3.60;;
44046;SDS011;29713;-33.888;151.150;2023-03-01T11:02:17;15.80;;;3.85;;
44046;SDS011;29713;-33.888;151.150;2023-03-01T11:05:02;16.13;;;3.28;;
44046;SDS011;29713;-33.888;151.150;2023-03-01T11:10:23;19.63;;;3.45;;
44046;SDS011;29713;-33.888;151.150;2023-03-01T11:13:08;19.92;;;3.85;;
44046;SDS011;29713;-33.888;151.150;2023-03-01T11:15:42;15.68;;;3.63;;
44046;SDS011;29713;-33.888;151.150;2023-03-01T11:18:24;15.60;;;3.58;;
44046;SDS011;29713;-33.888;151.150;2023-03-01T11:20:53;15.20;;;3.40;;
44046;SDS011;29713;-33.888;151.150;2023-03-01T11:23:21;9.85;;;3.35;;
44046;SDS011;29713;-33.888;151.150;2023-03-01T11:26:01;18.05;;;3.05;;
44046;SDS011;29713;-33.888;151.150;2023-03-01T11:28:33;12.52;;;3.30;;
44046;SDS011;29713;-33.888;151.150;2023-03-01T11:31:08;15.10;;;3.75;;
44046;SDS011;29713;-33.888;151.150;2023-03-01T11:39:15;14.15;;;3.55;;
44046;SDS011;29713;-33.888;151.150;2023-03-01T11:41:59;8.43;;;2.70;;
44046;SDS011;29713;-33.888;151.150;2023-03-01T11:44:52;12.98;;;3.42;;
44046;SDS011;29713;-33.888;151.150;2023-03-01T11:52:48;11.30;;;3.08;;
44046;SDS011;29713;-33.888;151.150;2023-03-01T11:55:30;14.65;;;3.28;;
44046;SDS011;29713;-33.888;151.150;2023-03-01T12:01:09;8.20;;;2.15;;
44046;SDS011;29713;-33.888;151.150;2023-03-01T12:12:08;9.60;;;2.65;;
44046;SDS011;29713;-33.888;151.150;2023-03-01T12:22:29;9.25;;;2.28;;
44046;SDS011;29713;-33.888;151.150;2023-03-01T12:25:14;14.55;;;2.67;;
44046;SDS011;29713;-33.888;151.150;2023-03-01T12:30:29;10.38;;;2.63;;
44046;SDS011;29713;-33.888;151.150;2023-03-01T12:49:40;10.13;;;2.25;;
44046;SDS011;29713;-33.888;151.150;2023-03-01T12:55:02;6.97;;;2.33;;
44046;SDS011;29713;-33.888;151.150;2023-03-01T13:11:17;8.60;;;2.45;;
44046;SDS011;29713;-33.888;151.150;2023-03-01T13:13:49;10.40;;;2.50;;
44046;SDS011;29713;-33.888;151.150;2023-03-01T13:16:27;10.73;;;2.65;;
44046;SDS011;29713;-33.888;151.150;2023-03-01T13:21:43;8.90;;;2.55;;
44046;SDS011;29713;-33.888;151.150;2023-03-01T13:33:26;7.97;;;2.70;;
44046;SDS011;29713;-33.888;151.150;2023-03-01T13:35:49;11.27;;;3.20;;
44046;SDS011;29713;-33.888;151.150;2023-03-01T13:41:15;7.07;;;2.33;;
44046;SDS011;29713;-33.888;151.150;2023-03-01T13:43:47;12.85;;;2.95;;
44046;SDS011;29713;-33.888;151.150;2023-03-01T13:46:19;9.13;;;2.78;;
44046;SDS011;29713;-33.888;151.150;2023-03-01T13:48:53;11.50;;;2.85;;
44046;SDS011;29713;-33.888;151.150;2023-03-01T13:51:26;10.00;;;2.47;;
44046;SDS011;29713;-33.888;151.150;2023-03-01T13:53:55;9.80;;;2.92;;
44046;SDS011;29713;-33.888;151.150;2023-03-01T13:56:25;10.48;;;2.95;;
44046;SDS011;29713;-33.888;151.150;2023-03-01T13:59:05;9.43;;;2.72;;
44046;SDS011;29713;-33.888;151.150;2023-03-01T14:01:41;10.93;;;3.03;;
44046;SDS011;29713;-33.888;151.150;2023-03-01T14:09:49;10.88;;;2.80;;
44046;SDS011;29713;-33.888;151.150;2023-03-01T14:20:28;11.98;;;2.97;;
44046;SDS011;29713;-33.888;151.150;2023-03-01T14:22:59;8.88;;;2.88;;
44046;SDS011;29713;-33.888;151.150;2023-03-01T14:25:35;14.48;;;3.10;;
44046;SDS011;29713;-33.888;151.150;2023-03-01T14:28:12;11.65;;;2.63;;
44046;SDS011;29713;-33.888;151.150;2023-03-01T14:30:50;11.15;;;2.78;;
44046;SDS011;29713;-33.888;151.150;2023-03-01T14:36:00;9.98;;;2.70;;
44046;SDS011;29713;-33.888;151.150;2023-03-01T14:38:36;13.15;;;3.33;;
44046;SDS011;29713;-33.888;151.150;2023-03-01T14:41:14;10.60;;;3.15;;
44046;SDS011;29713;-33.888;151.150;2023-03-01T14:43:46;10.00;;;3.00;;
44046;SDS011;29713;-33.888;151.150;2023-03-01T14:46:23;13.77;;;3.83;;
44046;SDS011;29713;-33.888;151.150;2023-03-01T14:49:02;9.52;;;2.75;;
44046;SDS011;29713;-33.888;151.150;2023-03-01T14:51:38;12.13;;;3.70;;
44046;SDS011;29713;-33.888;151.150;2023-03-01T14:56:57;9.95;;;2.80;;
44046;SDS011;29713;-33.888;151.150;2023-03-01T14:59:26;9.70;;;2.85;;
44046;SDS011;29713;-33.888;151.150;2023-03-01T15:01:56;12.23;;;3.10;;
44046;SDS011;29713;-33.888;151.150;2023-03-01T15:04:26;15.63;;;3.00;;
44046;SDS011;29713;-33.888;151.150;2023-03-01T15:06:55;14.90;;;3.05;;
44046;SDS011;29713;-33.888;151.150;2023-03-01T15:09:31;10.68;;;3.30;;
44046;SDS011;29713;-33.888;151.150;2023-03-01T15:12:00;11.73;;;3.20;;
44046;SDS011;29713;-33.888;151.150;2023-03-01T15:14:47;13.75;;;3.42;;
44046;SDS011;29713;-33.888;151.150;2023-03-01T15:17:26;9.57;;;2.90;;
44046;SDS011;29713;-33.888;151.150;2023-03-01T15:20:03;12.50;;;2.88;;
44046;SDS011;29713;-33.888;151.150;2023-03-01T15:22:32;14.93;;;3.35;;
44046;SDS011;29713;-33.888;151.150;2023-03-01T15:25:01;12.73;;;3.30;;
44046;SDS011;29713;-33.888;151.150;2023-03-01T15:27:28;12.15;;;3.03;;
44046;SDS011;29713;-33.888;151.150;2023-03-01T15:29:57;8.45;;;2.83;;
44046;SDS011;29713;-33.888;151.150;2023-03-01T15:32:34;13.80;;;3.53;;
44046;SDS011;29713;-33.888;151.150;2023-03-01T15:38:30;16.65;;;3.67;;
44046;SDS011;29713;-33.888;151.150;2023-03-01T15:41:02;14.35;;;3.95;;
44046;SDS011;29713;-33.888;151.150;2023-03-01T15:43:38;10.98;;;3.13;;
44046;SDS011;29713;-33.888;151.150;2023-03-01T15:46:20;8.18;;;2.92;;
44046;SDS011;29713;-33.888;151.150;2023-03-01T15:48:54;10.18;;;3.00;;
44046;SDS011;29713;-33.888;151.150;2023-03-01T15:51:30;10.38;;;3.20;;
44046;SDS011;29713;-33.888;151.150;2023-03-01T15:54:00;14.32;;;3.53;;
44046;SDS011;29713;-33.888;151.150;2023-03-01T15:56:57;12.43;;;3.35;;
44046;SDS011;29713;-33.888;151.150;2023-03-01T15:59:24;12.13;;;3.22;;
44046;SDS011;29713;-33.888;151.150;2023-03-01T16:01:52;13.05;;;3.08;;
44046;SDS011;29713;-33.888;151.150;2023-03-01T16:04:19;11.00;;;3.15;;
44046;SDS011;29713;-33.888;151.150;2023-03-01T16:06:51;11.80;;;3.15;;
44046;SDS011;29713;-33.888;151.150;2023-03-01T16:09:22;8.95;;;3.40;;
44046;SDS011;29713;-33.888;151.150;2023-03-01T16:11:52;9.45;;;2.80;;
44046;SDS011;29713;-33.888;151.150;2023-03-01T16:14:20;14.23;;;3.15;;
44046;SDS011;29713;-33.888;151.150;2023-03-01T16:16:47;8.13;;;2.80;;
44046;SDS011;29713;-33.888;151.150;2023-03-01T16:19:15;11.32;;;3.33;;
44046;SDS011;29713;-33.888;151.150;2023-03-01T16:21:43;7.22;;;3.05;;
44046;SDS011;29713;-33.888;151.150;2023-03-01T16:24:12;11.35;;;3.58;;
44046;SDS011;29713;-33.888;151.150;2023-03-01T16:26:40;9.65;;;3.30;;
44046;SDS011;29713;-33.888;151.150;2023-03-01T16:29:07;9.60;;;2.95;;
44046;SDS011;29713;-33.888;151.150;2023-03-01T16:31:35;8.55;;;3.20;;
44046;SDS011;29713;-33.888;151.150;2023-03-01T16:34:02;7.90;;;2.88;;
44046;SDS011;29713;-33.888;151.150;2023-03-01T16:36:30;11.70;;;3.33;;
44046;SDS011;29713;-33.888;151.150;2023-03-01T16:38:58;8.52;;;2.88;;
44046;SDS011;29713;-33.888;151.150;2023-03-01T16:41:26;7.05;;;3.00;;
44046;SDS011;29713;-33.888;151.150;2023-03-01T16:43:54;9.95;;;3.10;;
44046;SDS011;29713;-33.888;151.150;2023-03-01T16:46:22;6.50;;;2.78;;
44046;SDS011;29713;-33.888;151.150;2023-03-01T16:48:53;6.40;;;2.92;;
44046;SDS011;29713;-33.888;151.150;2023-03-01T16:51:22;11.73;;;3.55;;
44046;SDS011;29713;-33.888;151.150;2023-03-01T16:53:50;6.85;;;2.90;;
44046;SDS011;29713;-33.888;151.150;2023-03-01T16:56:18;9.88;;;3.50;;
44046;SDS011;29713;-33.888;151.150;2023-03-01T16:58:46;11.20;;;3.33;;